createdAt,value
2019-05-06T00:01:24.499Z,7.92
2019-05-06T00:03:54.139Z,7.70
2019-05-06T00:06:21.054Z,7.57
2019-05-06T00:08:47.878Z,7.57
2019-05-06T00:11:14.632Z,7.56
2019-05-06T00:13:41.618Z,7.45
2019-05-06T00:16:08.652Z,7.44
2019-05-06T00:18:35.381Z,7.43
2019-05-06T00:21:04.600Z,7.47
2019-05-06T00:23:38.866Z,7.61
2019-05-06T00:26:18.592Z,7.82
2019-05-06T00:28:53.752Z,7.96
2019-05-06T00:31:24.108Z,7.99
2019-05-06T00:33:51.021Z,7.98
2019-05-06T00:36:17.716Z,8.01
2019-05-06T00:38:48.244Z,7.99
2019-05-06T00:41:20.062Z,7.88
2019-05-06T00:43:46.772Z,7.90
2019-05-06T00:46:13.935Z,7.91
2019-05-06T00:48:41.200Z,7.97
2019-05-06T00:51:07.904Z,8.06
2019-05-06T00:53:36.930Z,7.89
2019-05-06T00:56:06.446Z,7.90
2019-05-06T00:58:34.793Z,7.88
2019-05-06T01:01:04.453Z,7.89
2019-05-06T01:03:30.884Z,7.60
2019-05-06T01:05:59.329Z,7.38
2019-05-06T01:08:26.045Z,7.21
2019-05-06T01:10:54.671Z,7.09
2019-05-06T01:13:30.911Z,6.99
2019-05-06T01:15:57.730Z,7.04
2019-05-06T01:18:24.601Z,7.13
2019-05-06T01:21:08.795Z,7.27
2019-05-06T01:23:35.524Z,7.31
2019-05-06T01:28:45.285Z,7.55
2019-05-06T01:31:14.874Z,7.54
2019-05-06T01:33:41.598Z,7.52
2019-05-06T01:36:08.324Z,7.54
2019-05-06T01:38:46.776Z,7.56
2019-05-06T01:41:33.845Z,7.57
2019-05-06T01:44:00.771Z,7.40
2019-05-06T01:46:27.533Z,7.10
2019-05-06T01:48:54.275Z,6.73
2019-05-06T01:51:23.898Z,6.52
2019-05-06T01:53:50.236Z,5.39
2019-05-06T01:56:17.087Z,6.35
2019-05-06T01:58:44.025Z,6.46
2019-05-06T02:01:14.747Z,6.62
2019-05-06T02:03:44.047Z,6.55
2019-05-06T02:06:10.975Z,6.51
2019-05-06T02:08:37.717Z,6.51
2019-05-06T02:11:04.471Z,6.53
2019-05-06T02:13:31.173Z,6.58
2019-05-06T02:15:57.989Z,6.57
2019-05-06T02:18:24.707Z,6.53
2019-05-06T02:20:53.930Z,6.50
2019-05-06T02:23:24.134Z,6.57
2019-05-06T02:25:54.019Z,6.62
2019-05-06T02:28:21.080Z,6.58
2019-05-06T02:31:07.485Z,6.58
2019-05-06T02:33:55.521Z,6.63
2019-05-06T02:36:25.840Z,6.59
2019-05-06T02:38:55.633Z,6.52
2019-05-06T02:41:23.273Z,6.52
2019-05-06T02:43:54.220Z,6.44
2019-05-06T02:46:23.552Z,6.42
2019-05-06T02:49:04.362Z,6.41
2019-05-06T02:51:33.340Z,6.43
2019-05-06T02:54:03.061Z,6.17
2019-05-06T02:56:29.131Z,6.17
2019-05-06T02:58:56.521Z,6.04
2019-05-06T03:01:23.586Z,6.15
2019-05-06T03:03:53.293Z,6.25
2019-05-06T03:06:19.043Z,6.29
2019-05-06T03:08:46.553Z,6.33
2019-05-06T03:11:13.748Z,6.33
2019-05-06T03:13:43.720Z,6.23
2019-05-06T03:16:10.147Z,6.23
2019-05-06T03:18:36.860Z,6.20
2019-05-06T03:21:26.236Z,6.18
2019-05-06T03:23:59.147Z,6.24
2019-05-06T03:26:27.827Z,6.24
2019-05-06T03:28:54.565Z,6.15
2019-05-06T03:31:25.969Z,6.15
2019-05-06T03:34:12.662Z,6.04
2019-05-06T03:36:27.302Z,6.00
2019-05-06T03:38:47.344Z,6.00
2019-05-06T03:41:14.175Z,5.95
2019-05-06T03:43:43.424Z,5.95
2019-05-06T03:46:38.549Z,5.95
2019-05-06T03:49:05.619Z,5.69
2019-05-06T03:51:34.241Z,5.59
2019-05-06T03:54:03.416Z,5.59
2019-05-06T03:56:29.579Z,5.59
2019-05-06T03:58:57.248Z,5.65
2019-05-06T04:01:24.377Z,5.60
2019-05-06T04:03:53.690Z,5.60
2019-05-06T04:06:19.908Z,5.56
2019-05-06T04:08:48.403Z,5.56
2019-05-06T04:11:15.741Z,5.60
2019-05-06T04:13:43.772Z,5.60
2019-05-06T04:16:19.360Z,5.66
2019-05-06T04:18:53.953Z,5.66
2019-05-06T04:21:43.422Z,5.61
2019-05-06T04:24:22.973Z,5.61
2019-05-06T04:27:04.107Z,5.61
2019-05-06T04:29:33.052Z,5.59
2019-05-06T04:31:59.919Z,5.48
2019-05-06T04:34:27.029Z,5.51
2019-05-06T04:36:53.759Z,5.42
2019-05-06T04:39:23.073Z,5.42
2019-05-06T04:41:49.141Z,5.31
2019-05-06T04:44:16.244Z,5.31
2019-05-06T04:46:44.421Z,5.33
2019-05-06T04:49:15.135Z,5.23
2019-05-06T04:51:42.857Z,5.23
2019-05-06T04:54:09.258Z,5.39
2019-05-06T04:56:36.045Z,5.60
2019-05-06T04:59:06.299Z,5.68
2019-05-06T05:01:34.068Z,5.71
2019-05-06T05:04:03.300Z,5.71
2019-05-06T05:06:29.277Z,5.63
2019-05-06T05:08:56.063Z,5.69
2019-05-06T05:11:33.271Z,5.69
2019-05-06T05:14:07.684Z,5.77
2019-05-06T05:16:57.301Z,5.87
2019-05-06T05:19:24.679Z,5.87
2019-05-06T05:21:54.717Z,6.03
2019-05-06T05:24:23.400Z,6.03
2019-05-06T05:26:52.188Z,6.11
2019-05-06T05:29:19.799Z,6.11
2019-05-06T05:31:46.526Z,6.17
2019-05-06T05:34:14.180Z,6.22
2019-05-06T05:36:42.589Z,6.28
2019-05-06T05:39:09.487Z,6.28
2019-05-06T05:41:36.322Z,6.33
2019-05-06T05:44:24.733Z,6.36
2019-05-06T05:46:52.368Z,6.49
2019-05-06T05:49:35.768Z,6.49
2019-05-06T05:52:03.516Z,6.62
2019-05-06T05:54:32.958Z,6.93
2019-05-06T05:57:02.466Z,6.93
2019-05-06T05:59:29.797Z,7.06
2019-05-06T06:01:56.819Z,7.05
2019-05-06T06:04:23.553Z,7.04
2019-05-06T06:06:52.032Z,7.19
2019-05-06T06:09:22.291Z,7.43
2019-05-06T06:11:54.295Z,7.59
2019-05-06T06:14:55.757Z,7.63
2019-05-06T06:17:37.189Z,7.69
2019-05-06T06:20:24.038Z,7.83
2019-05-06T06:22:52.326Z,7.93
2019-05-06T06:25:19.225Z,7.65
2019-05-06T06:27:51.870Z,7.63
2019-05-06T06:30:22.145Z,7.85
2019-05-06T06:32:52.864Z,7.91
2019-05-06T06:35:25.653Z,7.86
2019-05-06T06:38:02.636Z,7.74
2019-05-06T06:40:30.531Z,7.52
2019-05-06T06:43:02.247Z,7.62
2019-05-06T06:45:32.625Z,7.74
2019-05-06T06:47:59.371Z,7.94
2019-05-06T06:50:27.211Z,7.98
2019-05-06T06:52:54.231Z,8.20
2019-05-06T06:55:22.596Z,8.23
2019-05-06T06:57:59.804Z,8.15
2019-05-06T07:00:53.357Z,8.34
2019-05-06T07:03:32.731Z,8.60
2019-05-06T07:06:03.957Z,8.72
2019-05-06T07:08:36.561Z,8.75
2019-05-06T07:10:59.425Z,8.82
2019-05-06T07:13:26.159Z,9.04
2019-05-06T07:15:52.982Z,9.14
2019-05-06T07:18:19.735Z,9.15
2019-05-06T07:20:57.565Z,8.84
2019-05-06T07:23:28.745Z,8.58
2019-05-06T07:25:56.120Z,8.63
2019-05-06T07:28:22.930Z,8.75
2019-05-06T07:30:53.378Z,8.91
2019-05-06T07:33:22.652Z,8.87
2019-05-06T07:35:48.822Z,9.11
2019-05-06T07:38:15.524Z,9.33
2019-05-06T07:40:44.174Z,9.47
2019-05-06T07:43:36.874Z,9.27
2019-05-06T07:46:12.183Z,9.33
2019-05-06T07:48:39.054Z,9.34
2019-05-06T07:51:05.783Z,9.10
2019-05-06T07:53:36.338Z,9.16
2019-05-06T07:56:03.616Z,9.24
2019-05-06T07:58:32.228Z,9.49
2019-05-06T08:00:59.643Z,9.60
2019-05-06T08:03:26.355Z,9.85
2019-05-06T08:05:58.466Z,10.09
2019-05-06T08:08:23.074Z,10.12
2019-05-06T08:10:50.053Z,10.37
2019-05-06T08:13:16.795Z,10.61
2019-05-06T08:15:46.385Z,10.82
2019-05-06T08:18:13.127Z,10.74
2019-05-06T08:20:43.167Z,10.37
2019-05-06T08:23:22.062Z,10.37
2019-05-06T08:25:52.759Z,10.28
2019-05-06T08:28:18.784Z,10.36
2019-05-06T08:30:45.531Z,10.14
2019-05-06T08:33:12.965Z,10.16
2019-05-06T08:35:39.864Z,10.19
2019-05-06T08:38:08.959Z,10.07
2019-05-06T08:40:37.096Z,10.17
2019-05-06T08:43:03.799Z,10.35
2019-05-06T08:45:32.381Z,10.76
2019-05-06T08:47:59.484Z,11.05
2019-05-06T08:50:32.491Z,11.05
2019-05-06T08:53:14.004Z,11.09
2019-05-06T08:55:42.199Z,10.80
2019-05-06T08:58:09.101Z,10.70
2019-05-06T09:00:42.865Z,10.64
2019-05-06T09:03:10.064Z,10.54
2019-05-06T09:05:37.076Z,10.82
2019-05-06T09:08:06.818Z,10.91
2019-05-06T09:10:33.856Z,10.91
2019-05-06T09:13:02.007Z,10.93
2019-05-06T09:15:28.989Z,11.05
2019-05-06T09:17:55.705Z,10.75
2019-05-06T09:20:23.387Z,10.35
2019-05-06T09:22:52.161Z,10.34
2019-05-06T09:25:18.960Z,10.41
2019-05-06T09:28:02.725Z,10.49
2019-05-06T09:30:33.128Z,10.68
2019-05-06T09:32:59.943Z,10.79
2019-05-06T09:35:26.670Z,11.04
2019-05-06T09:37:53.567Z,11.28
2019-05-06T09:40:22.618Z,11.46
2019-05-06T09:42:52.075Z,11.49
2019-05-06T09:45:18.932Z,11.31
2019-05-06T09:47:58.681Z,11.38
2019-05-06T09:50:45.968Z,11.30
2019-05-06T09:53:19.395Z,11.32
2019-05-06T09:56:06.034Z,11.21
2019-05-06T09:58:34.302Z,11.26
2019-05-06T10:01:02.753Z,11.22
2019-05-06T10:03:33.036Z,11.09
2019-05-06T10:05:59.772Z,11.22
2019-05-06T10:08:26.870Z,11.15
2019-05-06T10:10:59.485Z,11.21
2019-05-06T10:13:22.968Z,11.46
2019-05-06T10:15:51.939Z,11.52
2019-05-06T10:18:18.316Z,11.82
2019-05-06T10:20:45.235Z,12.02
2019-05-06T10:23:12.140Z,12.06
2019-05-06T10:25:38.844Z,12.05
2019-05-06T10:28:33.269Z,12.29
2019-05-06T10:30:59.583Z,12.05
2019-05-06T10:33:28.184Z,12.31
2019-05-06T10:35:58.186Z,12.38
2019-05-06T10:38:44.295Z,12.35
2019-05-06T10:41:14.754Z,12.27
2019-05-06T10:44:35.416Z,12.00
2019-05-06T10:47:02.950Z,12.13
2019-05-06T10:49:29.954Z,12.50
2019-05-06T10:52:22.426Z,12.64
2019-05-06T10:54:49.158Z,12.69
2019-05-06T10:57:24.767Z,12.50
2019-05-06T10:59:51.491Z,12.44
2019-05-06T11:02:34.486Z,12.55
2019-05-06T11:05:02.825Z,12.70
2019-05-06T11:07:34.506Z,12.75
2019-05-06T11:09:58.458Z,12.88
2019-05-06T11:12:25.158Z,12.80
2019-05-06T11:14:53.260Z,12.79
2019-05-06T11:17:23.305Z,12.97
2019-05-06T11:19:50.381Z,13.06
2019-05-06T11:22:20.927Z,12.90
2019-05-06T11:24:45.918Z,13.02
2019-05-06T11:27:27.765Z,13.00
2019-05-06T11:29:43.745Z,12.76
2019-05-06T11:32:29.960Z,12.88
2019-05-06T11:35:04.663Z,13.30
2019-05-06T11:38:00.075Z,13.45
2019-05-06T11:40:26.819Z,13.38
2019-05-06T11:42:53.941Z,13.25
2019-05-06T11:45:22.713Z,13.35
2019-05-06T11:47:49.667Z,13.36
2019-05-06T11:50:16.402Z,13.12
2019-05-06T11:52:43.727Z,12.78
2019-05-06T11:55:12.641Z,12.70
2019-05-06T11:57:41.643Z,12.54
2019-05-06T12:00:14.456Z,12.34
2019-05-06T12:02:45.019Z,12.12
2019-05-06T12:05:09.873Z,12.08
2019-05-06T12:07:36.592Z,12.18
2019-05-06T12:10:03.758Z,12.23
2019-05-06T12:12:30.507Z,12.37
2019-05-06T12:14:57.284Z,12.55
2019-05-06T12:17:23.996Z,12.90
2019-05-06T12:19:52.802Z,13.14
2019-05-06T12:22:22.000Z,13.00
2019-05-06T12:24:48.561Z,12.69
2019-05-06T12:27:34.930Z,13.05
2019-05-06T12:30:05.333Z,13.28
2019-05-06T12:32:38.643Z,13.45
2019-05-06T12:35:05.792Z,14.03
2019-05-06T12:37:32.625Z,14.20
2019-05-06T12:39:59.731Z,14.14
2019-05-06T12:42:30.344Z,14.64
2019-05-06T12:45:34.682Z,14.93
2019-05-06T12:48:04.145Z,14.97
2019-05-06T12:50:33.038Z,14.89
2019-05-06T12:52:59.476Z,15.14
2019-05-06T12:55:26.213Z,15.11
2019-05-06T12:57:53.375Z,15.11
2019-05-06T13:00:20.181Z,14.88
2019-05-06T13:02:48.037Z,14.52
2019-05-06T13:05:14.749Z,14.35
2019-05-06T13:07:46.250Z,14.61
2019-05-06T13:10:13.718Z,14.53
2019-05-06T13:12:42.707Z,14.54
2019-05-06T13:15:13.535Z,14.93
2019-05-06T13:17:42.545Z,15.15
2019-05-06T13:20:09.154Z,14.44
2019-05-06T13:23:09.531Z,14.70
2019-05-06T13:25:32.804Z,14.84
2019-05-06T13:27:59.363Z,15.18
2019-05-06T13:30:26.079Z,15.14
2019-05-06T13:32:58.471Z,15.61
2019-05-06T13:35:29.851Z,15.23
2019-05-06T13:37:56.577Z,14.88
2019-05-06T13:40:26.646Z,15.03
2019-05-06T13:43:12.718Z,15.17
2019-05-06T13:45:41.964Z,15.05
2019-05-06T13:48:14.972Z,14.95
2019-05-06T13:50:42.881Z,14.81
2019-05-06T13:53:14.020Z,15.02
2019-05-06T13:55:39.360Z,15.04
2019-05-06T13:58:06.092Z,15.17
2019-05-06T14:00:34.530Z,15.14
2019-05-06T14:03:02.158Z,15.15
2019-05-06T14:05:32.893Z,15.34
2019-05-06T14:08:04.600Z,15.54
2019-05-06T14:10:30.216Z,15.76
2019-05-06T14:12:56.955Z,15.38
2019-05-06T14:15:23.682Z,14.95
2019-05-06T14:17:52.453Z,14.79
2019-05-06T14:20:19.409Z,14.59
2019-05-06T14:22:46.133Z,14.43
2019-05-06T14:25:33.186Z,14.50
2019-05-06T14:28:06.438Z,14.75
2019-05-06T14:30:53.201Z,14.91
2019-05-06T14:33:23.651Z,14.79
2019-05-06T14:35:52.603Z,14.77
2019-05-06T14:38:19.593Z,14.64
2019-05-06T14:41:07.455Z,14.52
2019-05-06T14:43:32.843Z,14.57
2019-05-06T14:45:59.893Z,14.38
2019-05-06T14:48:26.950Z,14.21
2019-05-06T14:50:57.200Z,14.19
2019-05-06T14:53:23.953Z,14.37
2019-05-06T14:55:52.771Z,14.48
2019-05-06T14:58:19.507Z,14.50
2019-05-06T15:00:46.229Z,14.56
2019-05-06T15:03:13.248Z,14.81
2019-05-06T15:05:44.111Z,14.74
2019-05-06T15:08:12.607Z,14.81
2019-05-06T15:10:39.473Z,14.77
2019-05-06T15:13:06.152Z,14.81
2019-05-06T15:15:33.566Z,14.60
2019-05-06T15:18:00.256Z,14.30
2019-05-06T15:20:26.962Z,13.30
2019-05-06T15:22:53.675Z,14.47
2019-05-06T15:25:23.415Z,14.56
2019-05-06T15:27:50.111Z,14.62
2019-05-06T15:30:23.841Z,14.70
2019-05-06T15:32:52.781Z,14.81
2019-05-06T15:35:52.390Z,15.15
2019-05-06T15:38:25.013Z,15.17
2019-05-06T15:40:52.649Z,15.11
2019-05-06T15:43:21.907Z,15.11
2019-05-06T15:45:48.366Z,14.99
2019-05-06T15:48:15.563Z,14.82
2019-05-06T15:50:45.624Z,14.55
2019-05-06T15:53:12.566Z,14.43
2019-05-06T15:55:39.369Z,14.33
2019-05-06T15:58:06.067Z,14.23
2019-05-06T16:00:33.230Z,14.40
2019-05-06T16:03:00.115Z,14.54
2019-05-06T16:05:26.955Z,14.65
2019-05-06T16:07:53.662Z,14.62
2019-05-06T16:10:22.601Z,14.34
2019-05-06T16:12:49.287Z,14.34
2019-05-06T16:15:17.188Z,14.50
2019-05-06T16:17:44.242Z,14.20
2019-05-06T16:20:12.969Z,14.15
2019-05-06T16:22:44.224Z,14.15
2019-05-06T16:25:13.195Z,13.96
2019-05-06T16:27:43.809Z,13.83
2019-05-06T16:30:08.644Z,13.96
2019-05-06T16:32:35.332Z,14.09
2019-05-06T16:35:02.059Z,14.10
2019-05-06T16:37:32.861Z,14.18
2019-05-06T16:39:59.320Z,14.24
2019-05-06T16:42:26.063Z,14.26
2019-05-06T16:44:52.911Z,14.29
2019-05-06T16:47:38.637Z,14.31
2019-05-06T16:50:07.678Z,14.33
2019-05-06T16:52:34.498Z,14.31
2019-05-06T16:55:03.181Z,14.10
2019-05-06T16:57:30.189Z,14.02
2019-05-06T16:59:57.538Z,14.06
2019-05-06T17:02:35.028Z,14.15
2019-05-06T17:05:19.748Z,14.11
2019-05-06T17:07:48.089Z,14.12
2019-05-06T17:10:15.357Z,14.07
2019-05-06T17:12:42.108Z,14.10
2019-05-06T17:15:08.817Z,14.17
2019-05-06T17:17:43.392Z,14.03
2019-05-06T17:20:04.154Z,14.01
2019-05-06T17:22:32.302Z,13.90
2019-05-06T17:25:02.281Z,13.63
2019-05-06T17:27:28.541Z,13.65
2019-05-06T17:30:22.617Z,13.62
2019-05-06T17:32:52.637Z,13.60
2019-05-06T17:35:19.837Z,13.63
2019-05-06T17:38:10.055Z,13.63
2019-05-06T17:40:36.749Z,13.67
2019-05-06T17:43:05.331Z,13.49
2019-05-06T17:45:59.332Z,13.40
2019-05-06T17:48:37.220Z,13.29
2019-05-06T17:51:14.193Z,13.20
2019-05-06T17:53:42.803Z,13.31
2019-05-06T17:56:09.545Z,13.21
2019-05-06T17:58:36.422Z,13.05
2019-05-06T18:01:03.584Z,13.04
2019-05-06T18:03:32.563Z,13.18
2019-05-06T18:05:59.131Z,13.32
2019-05-06T18:08:25.818Z,13.39
2019-05-06T18:10:54.440Z,13.37
2019-05-06T18:13:22.016Z,13.21
2019-05-06T18:15:53.026Z,13.10
2019-05-06T18:18:22.201Z,13.18
2019-05-06T18:20:49.100Z,13.17
2019-05-06T18:23:16.193Z,13.01
2019-05-06T18:25:43.257Z,12.77
2019-05-06T18:28:12.126Z,12.66
2019-05-06T18:30:38.820Z,12.58
2019-05-06T18:33:05.867Z,12.52
2019-05-06T18:35:32.570Z,12.54
2019-05-06T18:37:59.317Z,12.62
2019-05-06T18:40:26.056Z,12.71
2019-05-06T18:42:53.129Z,12.79
2019-05-06T18:45:22.028Z,12.72
2019-05-06T18:47:49.015Z,12.60
2019-05-06T18:50:15.719Z,12.57
2019-05-06T18:52:43.693Z,12.64
2019-05-06T18:55:12.240Z,12.72
2019-05-06T18:57:42.338Z,12.74
2019-05-06T19:00:09.434Z,12.67
2019-05-06T19:02:38.924Z,12.44
2019-05-06T19:05:19.189Z,12.42
2019-05-06T19:07:46.922Z,12.49
2019-05-06T19:10:25.773Z,12.42
2019-05-06T19:12:52.815Z,12.42
2019-05-06T19:15:21.983Z,12.52
2019-05-06T19:17:48.444Z,12.67
2019-05-06T19:20:15.145Z,12.69
2019-05-06T19:22:43.503Z,12.70
2019-05-06T19:25:12.448Z,12.71
2019-05-06T19:27:39.002Z,12.63
2019-05-06T19:30:06.514Z,12.45
2019-05-06T19:32:35.331Z,12.12
2019-05-06T19:35:02.846Z,12.01
2019-05-06T19:37:32.299Z,11.88
2019-05-06T19:39:58.405Z,11.74
2019-05-06T19:42:25.098Z,11.67
2019-05-06T19:44:52.813Z,11.67
2019-05-06T19:47:20.045Z,11.70
2019-05-06T19:49:46.748Z,11.77
2019-05-06T19:52:13.456Z,11.66
2019-05-06T19:54:42.351Z,11.55
2019-05-06T19:57:08.946Z,11.56
2019-05-06T19:59:36.057Z,11.53
2019-05-06T20:02:05.036Z,11.58
2019-05-06T20:04:33.638Z,11.57
2019-05-06T20:07:06.378Z,11.61
2019-05-06T20:09:52.250Z,11.59
2019-05-06T20:12:26.072Z,11.42
2019-05-06T20:14:55.277Z,11.42
2019-05-06T20:17:22.372Z,11.51
2019-05-06T20:19:49.320Z,11.51
2019-05-06T20:22:16.029Z,11.48
2019-05-06T20:24:43.036Z,11.43
2019-05-06T20:27:09.742Z,11.37
2019-05-06T20:29:38.498Z,11.34
2019-05-06T20:32:05.517Z,11.25
2019-05-06T20:34:32.197Z,11.27
2019-05-06T20:36:58.910Z,11.22
2019-05-06T20:39:25.636Z,11.11
2019-05-06T20:41:52.373Z,11.00
2019-05-06T20:44:19.062Z,11.01
2019-05-06T20:46:45.881Z,10.90
2019-05-06T20:49:13.274Z,10.91
2019-05-06T20:51:42.298Z,10.89
2019-05-06T20:54:12.949Z,10.81
2019-05-06T20:56:42.093Z,10.73
2019-05-06T20:59:08.728Z,10.62
2019-05-06T21:01:35.539Z,10.61
2019-05-06T21:04:06.028Z,10.56
2019-05-06T21:06:35.689Z,10.41
2019-05-06T21:09:05.077Z,10.37
2019-05-06T21:11:32.676Z,10.37
2019-05-06T21:13:59.584Z,10.34
2019-05-06T21:16:27.787Z,10.26
2019-05-06T21:18:54.464Z,10.13
2019-05-06T21:21:21.173Z,10.09
2019-05-06T21:23:48.675Z,10.04
2019-05-06T21:26:15.389Z,10.00
2019-05-06T21:28:43.532Z,9.98
2019-05-06T21:31:12.724Z,9.88
2019-05-06T21:33:39.423Z,9.83
2019-05-06T21:36:06.124Z,9.76
2019-05-06T21:38:32.845Z,9.68
2019-05-06T21:40:59.522Z,9.64
2019-05-06T21:43:26.914Z,9.66
2019-05-06T21:45:54.228Z,9.60
2019-05-06T21:48:22.204Z,9.47
2019-05-06T21:50:49.022Z,9.37
2019-05-06T21:53:15.742Z,9.23
2019-05-06T21:55:42.450Z,9.03
2019-05-06T21:58:09.668Z,8.91
2019-05-06T22:00:47.588Z,8.81
2019-05-06T22:03:14.582Z,8.78
2019-05-06T22:05:44.061Z,8.63
2019-05-06T22:08:12.641Z,8.52
2019-05-06T22:10:39.369Z,8.43
2019-05-06T22:13:06.104Z,8.43
2019-05-06T22:15:32.849Z,8.37
2019-05-06T22:17:59.536Z,8.35
2019-05-06T22:20:26.277Z,8.36
2019-05-06T22:22:52.982Z,8.37
2019-05-06T22:25:21.979Z,8.36
2019-05-06T22:27:48.375Z,8.33
2019-05-06T22:30:15.084Z,8.34
2019-05-06T22:32:44.782Z,8.18
2019-05-06T22:35:11.999Z,8.18
2019-05-06T22:37:38.732Z,7.97
2019-05-06T22:40:08.989Z,7.85
2019-05-06T22:42:35.939Z,7.91
2019-05-06T22:45:05.041Z,7.89
2019-05-06T22:47:32.559Z,7.90
2019-05-06T22:49:59.271Z,7.83
2019-05-06T22:52:30.014Z,7.85
2019-05-06T22:54:59.239Z,7.84
2019-05-06T22:57:25.927Z,7.74
2019-05-06T22:59:52.677Z,7.73
2019-05-06T23:02:37.178Z,7.85
2019-05-06T23:05:07.490Z,7.85
2019-05-06T23:07:34.386Z,7.67
2019-05-06T23:10:01.109Z,7.54
2019-05-06T23:12:29.765Z,7.57
2019-05-06T23:14:56.456Z,7.34
2019-05-06T23:17:23.250Z,7.06
2019-05-06T23:19:49.959Z,6.91
2019-05-06T23:22:16.693Z,6.64
2019-05-06T23:24:46.055Z,6.61
2019-05-06T23:27:12.828Z,6.83
2019-05-06T23:29:39.504Z,6.91
2019-05-06T23:32:06.230Z,6.86
2019-05-06T23:34:33.025Z,6.89
2019-05-06T23:37:25.194Z,6.93
2019-05-06T23:40:33.112Z,7.00
2019-05-06T23:43:37.165Z,7.00
2019-05-06T23:46:44.217Z,7.09
2019-05-06T23:49:49.940Z,6.88
2019-05-06T23:52:53.591Z,6.80
2019-05-06T23:55:57.021Z,6.88
2019-05-06T23:58:23.391Z,6.89
